createdAt,value
2023-03-29T00:01:43.240Z,57965.28
2023-03-29T00:06:47.683Z,57965.28
2023-03-29T00:11:49.057Z,57965.28
2023-03-29T00:16:51.166Z,57965.28
2023-03-29T00:21:52.781Z,57965.28
2023-03-29T00:26:54.188Z,57965.28
2023-03-29T00:31:56.041Z,57965.28
2023-03-29T00:36:57.959Z,57965.28
2023-03-29T00:41:59.452Z,57965.28
2023-03-29T00:47:01.153Z,57965.28
2023-03-29T00:52:03.510Z,57965.28
2023-03-29T00:57:06.835Z,57965.28
2023-03-29T01:02:09.175Z,57965.28
2023-03-29T01:07:14.036Z,57965.28
2023-03-29T01:12:19.730Z,57965.28
2023-03-29T01:17:21.960Z,57965.28
2023-03-29T01:22:25.875Z,57965.28
2023-03-29T01:27:49.971Z,57965.28
2023-03-29T01:32:55.499Z,57965.28
2023-03-29T01:38:02.213Z,57965.28
2023-03-29T01:48:21.213Z,57965.28
2023-03-29T01:53:30.763Z,57965.28
2023-03-29T01:58:33.933Z,57965.28
2023-03-29T02:03:42.209Z,57965.28
2023-03-29T02:08:44.928Z,77824.84
2023-03-29T02:13:48.040Z,57965.28
2023-03-29T02:18:52.741Z,57965.28
2023-03-29T02:23:55.509Z,57965.28
2023-03-29T02:28:56.935Z,57965.28
2023-03-29T02:33:58.765Z,57965.28
2023-03-29T02:39:04.545Z,57965.28
2023-03-29T02:44:08.105Z,57965.28
2023-03-29T02:49:10.517Z,57965.28
2023-03-29T02:54:13.634Z,57965.28
2023-03-29T02:59:16.612Z,57965.28
2023-03-29T03:04:20.542Z,57965.28
2023-03-29T03:14:23.492Z,57965.28
2023-03-29T03:19:25.204Z,57965.28
2023-03-29T03:24:28.020Z,57965.28
2023-03-29T03:29:30.044Z,57965.28
2023-03-29T03:39:47.751Z,57965.28
2023-03-29T03:55:13.185Z,57965.28
2023-03-29T04:00:20.315Z,57965.28
2023-03-29T04:05:32.723Z,57965.28
2023-03-29T04:10:34.673Z,57965.28
2023-03-29T04:15:46.082Z,57965.28
2023-03-29T04:20:49.484Z,57965.28
2023-03-29T04:25:55.351Z,57965.28
2023-03-29T04:36:41.854Z,57965.28
2023-03-29T04:41:51.567Z,57965.28
2023-03-29T04:47:01.101Z,57965.28
2023-03-29T04:52:24.650Z,57965.28
2023-03-29T04:57:27.085Z,57965.28
2023-03-29T05:02:44.748Z,57965.28
2023-03-29T05:07:47.942Z,57965.28
2023-03-29T05:12:53.845Z,57965.28
2023-03-29T05:17:57.081Z,57965.28
2023-03-29T05:22:58.661Z,57965.28
2023-03-29T05:28:39.418Z,57965.28
2023-03-29T05:33:42.377Z,57965.28
2023-03-29T05:38:47.898Z,57965.28
2023-03-29T05:43:49.479Z,57965.28
2023-03-29T05:48:51.925Z,57965.28
2023-03-29T05:53:55.817Z,57965.28
2023-03-29T05:58:58.511Z,101556.81
2023-03-29T06:04:00.945Z,101556.81
2023-03-29T06:14:27.645Z,57965.28
2023-03-29T06:19:39.731Z,57965.28
2023-03-29T06:24:41.475Z,57965.28
2023-03-29T06:29:50.314Z,57965.28
2023-03-29T06:34:52.092Z,57965.28
2023-03-29T06:45:20.565Z,57965.28
2023-03-29T06:50:26.123Z,57965.28
2023-03-29T06:55:47.959Z,112849.09
2023-03-29T07:01:11.438Z,57965.28
2023-03-29T07:11:25.099Z,77824.47
2023-03-29T07:16:30.183Z,101556.81
2023-03-29T07:21:51.543Z,57965.28
2023-03-29T07:27:03.124Z,57965.28
2023-03-29T07:37:26.372Z,101556.81
2023-03-29T07:42:30.212Z,101556.81
2023-03-29T07:47:32.113Z,101556.81
2023-03-29T07:52:33.974Z,101556.81
2023-03-29T07:57:35.873Z,101556.81
2023-03-29T08:02:38.043Z,101556.81
2023-03-29T08:07:41.268Z,100997.09
2023-03-29T08:13:07.316Z,100997.09
2023-03-29T08:18:19.973Z,100997.09
2023-03-29T08:23:21.505Z,100997.09
2023-03-29T08:28:47.638Z,100997.09
2023-03-29T08:33:51.901Z,100996.25
2023-03-29T08:39:11.542Z,100996.25
2023-03-29T08:44:21.691Z,100991.84
2023-03-29T08:49:29.085Z,100987.25
2023-03-29T08:54:36.970Z,100980.78
2023-03-29T08:59:45.549Z,100981.13
2023-03-29T09:04:50.683Z,100988.78
2023-03-29T09:10:17.643Z,100993.88
2023-03-29T09:15:24.842Z,100991.09
2023-03-29T09:20:51.943Z,100983.53
2023-03-29T09:26:06.687Z,100973.78
2023-03-29T09:31:29.676Z,100979.19
2023-03-29T09:36:32.003Z,100985.03
2023-03-29T09:41:37.467Z,100980.78
2023-03-29T09:46:43.959Z,100979.81
2023-03-29T09:51:48.001Z,100964.66
2023-03-29T09:56:49.861Z,100963.47
2023-03-29T10:02:04.811Z,100949.03
2023-03-29T10:07:06.597Z,100944.81
2023-03-29T10:12:08.447Z,100956.69
2023-03-29T10:17:18.298Z,100958.50
2023-03-29T10:22:23.110Z,100958.91
2023-03-29T10:27:26.986Z,100957.50
2023-03-29T10:32:33.549Z,100958.91
2023-03-29T10:37:35.083Z,100946.69
2023-03-29T10:42:37.330Z,100939.63
2023-03-29T10:47:38.697Z,100942.16
2023-03-29T10:52:40.224Z,100944.66
2023-03-29T10:57:47.772Z,100939.13
2023-03-29T11:02:49.273Z,100937.25
2023-03-29T11:07:59.692Z,100928.41
2023-03-29T11:13:09.540Z,100929.47
2023-03-29T11:18:13.752Z,100927.34
2023-03-29T11:23:24.258Z,100919.34
2023-03-29T11:28:44.338Z,100913.69
2023-03-29T11:33:51.969Z,100906.72
2023-03-29T11:39:04.333Z,100899.38
2023-03-29T11:44:10.317Z,100896.03
2023-03-29T11:49:15.210Z,100905.38
2023-03-29T11:54:20.545Z,100893.28
2023-03-29T11:59:25.003Z,100892.56
2023-03-29T12:04:30.227Z,100895.44
2023-03-29T12:09:34.695Z,100876.41
2023-03-29T12:14:46.807Z,100876.97
2023-03-29T12:20:06.613Z,100882.75
2023-03-29T12:25:17.373Z,100876.75
2023-03-29T12:30:33.899Z,100860.44
2023-03-29T12:35:49.567Z,100859.84
2023-03-29T12:41:35.990Z,100862.72
2023-03-29T12:47:06.498Z,100860.78
2023-03-29T12:52:17.385Z,100847.34
2023-03-29T12:57:21.116Z,100845.91
2023-03-29T13:02:22.606Z,100844.88
2023-03-29T13:07:24.184Z,100847.03
2023-03-29T13:12:27.106Z,100836.91
2023-03-29T13:17:51.329Z,100835.63
2023-03-29T13:23:11.291Z,100837.06
2023-03-29T13:28:26.947Z,100818.16
2023-03-29T13:33:38.168Z,100814.50
2023-03-29T13:38:46.936Z,100799.84
2023-03-29T13:43:55.294Z,100791.91
2023-03-29T13:49:20.376Z,100793.50
2023-03-29T13:54:34.836Z,100779.91
2023-03-29T13:59:56.982Z,100779.91
2023-03-29T14:05:00.202Z,100760.53
2023-03-29T14:10:02.027Z,100752.97
2023-03-29T14:15:06.235Z,100750.25
2023-03-29T14:20:09.572Z,100754.25
2023-03-29T14:25:16.018Z,100747.28
2023-03-29T14:30:22.612Z,100739.38
2023-03-29T14:35:29.427Z,100739.13
2023-03-29T14:40:30.994Z,100740.59
2023-03-29T14:45:32.550Z,100730.31
2023-03-29T14:50:34.631Z,100732.19
2023-03-29T14:55:36.570Z,100726.00
2023-03-29T15:00:42.414Z,100713.19
2023-03-29T15:05:47.921Z,100704.28
2023-03-29T15:10:49.722Z,100697.88
2023-03-29T15:15:53.775Z,100686.28
2023-03-29T15:20:55.458Z,100680.16
2023-03-29T15:25:58.612Z,100679.34
2023-03-29T15:31:19.481Z,100673.28
2023-03-29T15:36:21.753Z,100658.94
2023-03-29T15:41:23.308Z,100653.63
2023-03-29T15:46:24.803Z,100635.72
2023-03-29T15:51:26.397Z,100616.41
2023-03-29T15:56:27.932Z,100607.50
2023-03-29T16:01:37.302Z,100597.13
2023-03-29T16:06:39.049Z,100587.75
2023-03-29T16:11:41.429Z,100588.25
2023-03-29T16:16:42.892Z,100581.75
2023-03-29T16:21:44.925Z,100580.38
2023-03-29T16:26:46.751Z,100568.50
2023-03-29T16:31:48.744Z,100575.06
2023-03-29T16:36:50.664Z,100573.47
2023-03-29T16:41:52.068Z,100558.41
2023-03-29T16:46:58.277Z,100544.47
2023-03-29T16:51:59.730Z,100546.25
2023-03-29T16:57:01.162Z,100551.06
2023-03-29T17:02:02.585Z,100545.16
2023-03-29T17:07:04.028Z,100561.91
2023-03-29T17:12:05.781Z,100533.38
2023-03-29T17:17:07.326Z,100539.03
2023-03-29T17:22:08.741Z,100532.44
2023-03-29T17:27:10.188Z,100525.31
2023-03-29T17:32:11.589Z,100516.34
2023-03-29T17:37:13.142Z,100529.09
2023-03-29T17:42:16.059Z,100521.69
2023-03-29T17:47:17.725Z,100508.47
2023-03-29T17:52:19.256Z,100507.06
2023-03-29T17:57:21.045Z,100513.53
2023-03-29T18:02:24.509Z,100517.88
2023-03-29T18:07:26.058Z,100512.91
2023-03-29T18:12:28.421Z,100499.03
2023-03-29T18:17:29.968Z,100485.00
2023-03-29T18:22:34.071Z,100486.72
2023-03-29T18:27:36.361Z,100498.94
2023-03-29T18:32:37.807Z,100492.00
2023-03-29T18:37:39.313Z,100479.56
2023-03-29T18:42:40.880Z,100481.16
2023-03-29T18:47:42.545Z,100484.63
2023-03-29T18:52:44.064Z,100483.66
2023-03-29T18:57:45.437Z,100472.47
2023-03-29T19:02:47.065Z,100469.47
2023-03-29T19:07:48.466Z,100468.63
2023-03-29T19:12:50.069Z,100458.50
2023-03-29T19:17:51.480Z,100457.78
2023-03-29T19:22:53.515Z,100443.47
2023-03-29T19:27:54.914Z,100447.72
2023-03-29T19:32:56.375Z,100433.38
2023-03-29T19:37:57.857Z,100439.00
2023-03-29T19:42:59.214Z,100433.22
2023-03-29T19:48:03.338Z,100419.00
2023-03-29T19:53:05.120Z,100414.56
2023-03-29T19:58:07.046Z,100409.91
2023-03-29T20:03:12.394Z,100411.06
2023-03-29T20:08:13.930Z,100399.09
2023-03-29T20:13:21.863Z,100403.81
2023-03-29T20:18:29.200Z,100403.03
2023-03-29T20:23:31.473Z,100388.53
2023-03-29T20:28:33.361Z,100381.41
2023-03-29T20:33:34.818Z,100382.91
2023-03-29T20:38:36.258Z,100373.16
2023-03-29T20:43:37.898Z,100367.75
2023-03-29T20:48:52.886Z,100362.56
2023-03-29T20:54:02.080Z,100350.13
2023-03-29T20:59:04.034Z,100344.34
2023-03-29T21:04:08.062Z,100338.63
2023-03-29T21:09:09.548Z,100325.25
2023-03-29T21:14:10.984Z,100314.13
2023-03-29T21:19:12.812Z,100308.06
2023-03-29T21:24:14.795Z,100303.75
2023-03-29T21:29:16.211Z,100285.41
2023-03-29T21:34:17.569Z,100284.53
2023-03-29T21:39:18.997Z,100273.72
2023-03-29T21:44:20.394Z,100284.00
2023-03-29T21:49:21.791Z,100278.69
2023-03-29T21:54:23.216Z,100281.22
2023-03-29T21:59:24.597Z,100285.34
2023-03-29T22:04:36.007Z,100276.50
2023-03-29T22:09:42.267Z,100269.56
2023-03-29T22:14:43.662Z,100284.63
2023-03-29T22:19:45.081Z,100277.44
2023-03-29T22:24:46.741Z,100259.97
2023-03-29T22:29:48.377Z,100263.59
2023-03-29T22:34:49.789Z,100263.03
2023-03-29T22:39:51.550Z,100257.50
2023-03-29T22:44:52.914Z,100244.25
2023-03-29T22:49:54.305Z,100246.25
2023-03-29T22:54:55.796Z,100250.00
2023-03-29T22:59:57.190Z,100237.59
2023-03-29T23:04:58.774Z,100237.13
2023-03-29T23:10:00.211Z,100233.56
2023-03-29T23:15:03.245Z,100233.16
2023-03-29T23:20:05.989Z,100229.97
2023-03-29T23:25:07.718Z,100229.34
2023-03-29T23:30:10.537Z,100212.94
2023-03-29T23:35:12.140Z,100220.66
2023-03-29T23:40:14.174Z,100221.94
2023-03-29T23:45:18.034Z,100210.13
2023-03-29T23:50:19.455Z,100188.56
2023-03-29T23:55:20.895Z,100186.53
